Time,TemperatureF,DewpointF,PressureIn,WindDirection,WindDirectionDegrees,WindSpeedMPH,WindSpeedGustMPH,Humidity,HourlyPrecipIn,Conditions,Clouds,dailyrainin,SoftwareType,DateUTC
2013-02-20 00:14:00,38.3,19.0,30.04,SSE,166,2.0,3.0,46,0.00,,,0.19,weatherlink.com 1.10,2013-02-20 05:14:00,
2013-02-20 00:29:00,38.4,19.0,30.05,SSE,154,0.0,1.0,46,0.00,,,0.19,weatherlink.com 1.10,2013-02-20 05:29:00,
2013-02-20 00:44:00,37.8,20.0,30.06,SSE,154,2.0,2.0,49,0.00,,,0.19,weatherlink.com 1.10,2013-02-20 05:44:00,
2013-02-20 00:59:00,37.2,18.0,30.06,West,264,4.0,4.0,47,0.00,,,0.19,weatherlink.com 1.10,2013-02-20 05:59:00,
2013-02-20 01:14:00,37.4,19.0,30.06,SSE,162,0.0,3.0,47,0.00,,,0.19,weatherlink.com 1.10,2013-02-20 06:14:00,
2013-02-20 01:29:00,37.2,18.0,30.07,South,169,0.0,0.0,46,0.00,,,0.19,weatherlink.com 1.10,2013-02-20 06:29:00,
2013-02-20 01:44:00,36.4,18.0,30.07,South,169,0.0,0.0,47,0.00,,,0.00,weatherlink.com 1.10,2013-02-20 06:44:00,
2013-02-20 01:59:00,35.1,18.0,30.06,South,169,0.0,2.0,49,0.00,,,0.00,weatherlink.com 1.10,2013-02-20 06:59:00,
2013-02-20 02:14:00,35.3,18.0,30.06,SSW,210,0.0,4.0,50,0.00,,,0.00,weatherlink.com 1.10,2013-02-20 07:14:00,
2013-02-20 02:30:00,35.8,18.0,30.05,WSW,237,1.0,5.0,48,0.00,,,0.00,weatherlink.com 1.10,2013-02-20 07:30:00,
2013-02-20 02:44:00,35.8,18.0,30.05,SW,226,0.0,4.0,49,0.00,,,0.00,weatherlink.com 1.10,2013-02-20 07:44:00,
2013-02-20 02:59:00,35.6,18.0,30.05,SW,215,0.0,6.0,49,0.00,,,0.00,weatherlink.com 1.10,2013-02-20 07:59:00,
2013-02-20 03:14:00,35.4,17.0,30.06,SSW,202,3.0,7.0,48,0.00,,,0.00,weatherlink.com 1.10,2013-02-20 08:14:00,
2013-02-20 03:29:00,35.3,18.0,30.05,SSW,195,4.0,6.0,49,0.00,,,0.00,weatherlink.com 1.10,2013-02-20 08:29:00,
2013-02-20 03:44:00,35.1,18.0,30.05,SW,216,0.0,5.0,49,0.00,,,0.00,weatherlink.com 1.10,2013-02-20 08:44:00,
2013-02-20 04:00:00,34.4,17.0,30.05,SW,216,0.0,3.0,50,0.00,,,0.00,weatherlink.com 1.10,2013-02-20 09:00:00,
2013-02-20 04:15:00,33.7,18.0,30.05,SW,216,0.0,2.0,53,0.00,,,0.00,weatherlink.com 1.10,2013-02-20 09:15:00,
2013-02-20 04:30:00,33.1,18.0,30.05,SW,216,0.0,0.0,54,0.00,,,0.00,weatherlink.com 1.10,2013-02-20 09:30:00,
2013-02-20 04:45:00,31.2,19.0,30.06,SW,216,0.0,0.0,61,0.00,,,0.00,weatherlink.com 1.10,2013-02-20 09:45:00,
2013-02-20 05:00:00,30.3,20.0,30.06,SW,216,0.0,0.0,66,0.00,,,0.00,weatherlink.com 1.10,2013-02-20 10:00:00,
2013-02-20 05:15:00,29.4,17.0,30.06,SW,216,0.0,0.0,61,0.00,,,0.00,weatherlink.com 1.10,2013-02-20 10:15:00,
2013-02-20 05:30:00,29.3,18.0,30.05,SW,216,0.0,0.0,62,0.00,,,0.00,weatherlink.com 1.10,2013-02-20 10:30:00,
2013-02-20 05:45:00,28.5,18.0,30.07,SW,216,0.0,0.0,65,0.00,,,0.00,weatherlink.com 1.10,2013-02-20 10:45:00,
2013-02-20 06:00:00,27.7,21.0,30.07,SW,216,0.0,0.0,75,0.00,,,0.00,weatherlink.com 1.10,2013-02-20 11:00:00,
2013-02-20 06:15:00,27.1,23.0,30.07,SW,216,0.0,0.0,83,0.00,,,0.00,weatherlink.com 1.10,2013-02-20 11:15:00,
2013-02-20 06:30:00,26.3,19.0,30.07,SW,216,0.0,0.0,73,0.00,,,0.00,weatherlink.com 1.10,2013-02-20 11:30:00,
2013-02-20 06:45:00,25.8,20.0,30.08,SW,216,0.0,0.0,78,0.00,,,0.00,weatherlink.com 1.10,2013-02-20 11:45:00,
2013-02-20 07:00:00,26.1,21.0,30.08,SW,216,0.0,0.0,80,0.00,,,0.00,weatherlink.com 1.10,2013-02-20 12:00:00,
2013-02-20 07:15:00,25.3,19.0,30.09,SW,216,0.0,0.0,76,0.00,,,0.00,weatherlink.com 1.10,2013-02-20 12:15:00,
2013-02-20 07:30:00,25.5,21.0,30.09,SW,216,0.0,0.0,83,0.00,,,0.00,weatherlink.com 1.10,2013-02-20 12:30:00,
2013-02-20 07:45:00,25.7,20.0,30.09,SW,216,0.0,0.0,79,0.00,,,0.00,weatherlink.com 1.10,2013-02-20 12:45:00,
2013-02-20 08:00:00,26.5,21.0,30.10,SW,216,0.0,0.0,79,0.00,,,0.00,weatherlink.com 1.10,2013-02-20 13:00:00,
2013-02-20 08:15:00,27.7,23.0,30.10,SW,216,0.0,0.0,83,0.00,,,0.00,weatherlink.com 1.10,2013-02-20 13:15:00,
2013-02-20 08:30:00,28.7,24.0,30.10,SW,216,0.0,0.0,82,0.00,,,0.00,weatherlink.com 1.10,2013-02-20 13:30:00,
2013-02-20 08:45:00,30.8,29.0,30.11,SW,216,0.0,0.0,93,0.00,,,0.00,weatherlink.com 1.10,2013-02-20 13:45:00,
2013-02-20 09:00:00,32.6,22.0,30.11,SW,216,0.0,0.0,66,0.00,,,0.00,weatherlink.com 1.10,2013-02-20 14:00:00,
2013-02-20 09:15:00,33.0,25.0,30.11,SSW,210,1.0,2.0,72,0.00,,,0.00,weatherlink.com 1.10,2013-02-20 14:15:00,
2013-02-20 09:30:00,34.2,22.0,30.11,SSW,196,0.0,3.0,61,0.00,,,0.00,weatherlink.com 1.10,2013-02-20 14:30:00,
2013-02-20 09:45:00,36.3,20.0,30.11,SSW,193,0.0,2.0,52,0.00,,,0.00,weatherlink.com 1.10,2013-02-20 14:45:00,
2013-02-20 10:00:00,38.5,21.0,30.12,SSE,154,5.0,6.0,50,0.00,,,0.00,weatherlink.com 1.10,2013-02-20 15:00:00,
2013-02-20 10:15:00,40.5,18.0,30.12,SW,219,4.0,5.0,41,0.00,,,0.00,weatherlink.com 1.10,2013-02-20 15:15:00,
2013-02-20 10:30:00,42.5,20.0,30.12,WSW,249,1.0,6.0,40,0.00,,,0.00,weatherlink.com 1.10,2013-02-20 15:30:00,
2013-02-20 10:46:00,43.4,17.0,30.11,SSW,201,1.0,8.0,35,0.00,,,0.00,weatherlink.com 1.10,2013-02-20 15:46:00,
2013-02-20 11:01:00,44.7,17.0,30.11,West,263,2.0,6.0,33,0.00,,,0.00,weatherlink.com 1.10,2013-02-20 16:01:00,
2013-02-20 11:16:00,44.0,16.0,30.11,SW,220,6.0,8.0,32,0.00,,,0.00,weatherlink.com 1.10,2013-02-20 16:16:00,
2013-02-20 11:31:00,45.4,16.0,30.11,SE,137,0.0,11.0,31,0.00,,,0.00,weatherlink.com 1.10,2013-02-20 16:31:00,
2013-02-20 11:46:00,46.8,15.0,30.09,SW,217,4.0,8.0,28,0.00,,,0.00,weatherlink.com 1.10,2013-02-20 16:46:00,
2013-02-20 12:01:00,47.2,17.0,30.09,SSW,196,0.0,6.0,30,0.00,,,0.00,weatherlink.com 1.10,2013-02-20 17:01:00,
2013-02-20 12:16:00,48.6,16.0,30.08,West,263,0.0,4.0,27,0.00,,,0.00,weatherlink.com 1.10,2013-02-20 17:16:00,
2013-02-20 12:46:00,49.8,13.0,30.07,WSW,251,0.0,10.0,23,0.00,,,0.00,weatherlink.com 1.10,2013-02-20 17:46:00,
2013-02-20 13:01:00,50.1,13.0,30.07,SSW,197,0.0,8.0,23,0.00,,,0.00,weatherlink.com 1.10,2013-02-20 18:01:00,
2013-02-20 13:16:00,50.1,12.0,30.06,WNW,289,0.0,6.0,22,0.00,,,0.00,weatherlink.com 1.10,2013-02-20 18:16:00,
2013-02-20 13:31:00,50.4,13.0,30.05,South,191,2.0,7.0,22,0.00,,,0.00,weatherlink.com 1.10,2013-02-20 18:31:00,
2013-02-20 13:46:00,51.1,16.0,30.05,West,281,0.0,7.0,25,0.00,,,0.00,weatherlink.com 1.10,2013-02-20 18:46:00,
2013-02-20 14:01:00,50.8,13.0,30.04,South,191,1.0,6.0,22,0.00,,,0.00,weatherlink.com 1.10,2013-02-20 19:01:00,
2013-02-20 14:16:00,52.1,18.0,30.03,WNW,299,1.0,6.0,26,0.00,,,0.00,weatherlink.com 1.10,2013-02-20 19:16:00,
2013-02-20 14:31:00,52.3,14.0,30.04,WSW,238,3.0,6.0,22,0.00,,,0.00,weatherlink.com 1.10,2013-02-20 19:31:00,
2013-02-20 14:46:00,52.5,15.0,30.03,WNW,295,0.0,7.0,23,0.00,,,0.00,weatherlink.com 1.10,2013-02-20 19:46:00,
2013-02-20 15:01:00,53.2,14.0,30.03,South,191,2.0,4.0,21,0.00,,,0.00,weatherlink.com 1.10,2013-02-20 20:01:00,
2013-02-20 15:31:00,53.6,11.0,30.03,SSE,158,0.0,7.0,18,0.00,,,0.00,weatherlink.com 1.10,2013-02-20 20:31:00,
2013-02-20 15:46:00,54.3,11.0,30.03,SE,126,0.0,6.0,18,0.00,,,0.00,weatherlink.com 1.10,2013-02-20 20:46:00,
2013-02-20 16:01:00,54.8,15.0,30.03,SSW,206,0.0,4.0,21,0.00,,,0.00,weatherlink.com 1.10,2013-02-20 21:01:00,
2013-02-20 16:16:00,54.5,16.0,30.04,SSE,164,3.0,6.0,22,0.00,,,0.00,weatherlink.com 1.10,2013-02-20 21:16:00,
2013-02-20 16:31:00,53.4,17.0,30.04,SE,135,4.0,9.0,24,0.00,,,0.00,weatherlink.com 1.10,2013-02-20 21:31:00,
2013-02-20 16:46:00,51.6,21.0,30.04,SSE,166,0.0,7.0,30,0.00,,,0.00,weatherlink.com 1.10,2013-02-20 21:46:00,
2013-02-20 17:01:00,50.6,20.0,30.05,South,183,0.0,5.0,30,0.00,,,0.00,weatherlink.com 1.10,2013-02-20 22:01:00,
2013-02-20 17:16:00,50.0,20.0,30.06,SSE,164,2.0,8.0,31,0.00,,,0.00,weatherlink.com 1.10,2013-02-20 22:16:00,
2013-02-20 17:31:00,49.5,21.0,30.07,ESE,116,0.0,7.0,32,0.00,,,0.00,weatherlink.com 1.10,2013-02-20 22:31:00,
2013-02-20 17:46:00,49.1,20.0,30.08,ESE,103,1.0,7.0,32,0.00,,,0.00,weatherlink.com 1.10,2013-02-20 22:46:00,
2013-02-20 18:01:00,48.7,21.0,30.08,SE,130,0.0,5.0,33,0.00,,,0.00,weatherlink.com 1.10,2013-02-20 23:01:00,
2013-02-20 18:16:00,48.3,21.0,30.09,SSE,155,0.0,3.0,34,0.00,,,0.00,weatherlink.com 1.10,2013-02-20 23:16:00,
2013-02-20 18:31:00,47.9,21.0,30.09,SSE,155,0.0,2.0,35,0.00,,,0.00,weatherlink.com 1.10,2013-02-20 23:31:00,
2013-02-20 18:46:00,47.5,22.0,30.09,SSE,155,0.0,1.0,36,0.00,,,0.00,weatherlink.com 1.10,2013-02-20 23:46:00,
2013-02-20 19:01:00,46.6,21.0,30.08,SSE,167,0.0,3.0,37,0.00,,,0.00,weatherlink.com 1.10,2013-02-21 00:01:00,
2013-02-20 19:16:00,46.0,22.0,30.08,SSE,168,0.0,1.0,39,0.00,,,0.00,weatherlink.com 1.10,2013-02-21 00:16:00,
2013-02-20 19:31:00,45.4,20.0,30.07,SSE,168,0.0,0.0,37,0.00,,,0.00,weatherlink.com 1.10,2013-02-21 00:31:00,
2013-02-20 19:46:00,44.6,21.0,30.08,SSE,168,0.0,1.0,40,0.00,,,0.00,weatherlink.com 1.10,2013-02-21 00:46:00,
2013-02-20 20:01:00,44.1,20.0,30.09,SSE,168,0.0,0.0,38,0.00,,,0.00,weatherlink.com 1.10,2013-02-21 01:01:00,
2013-02-20 20:16:00,43.7,19.0,30.09,SSE,168,0.0,0.0,38,0.00,,,0.00,weatherlink.com 1.10,2013-02-21 01:16:00,
2013-02-20 20:31:00,42.8,21.0,30.09,SSE,168,0.0,1.0,42,0.00,,,0.00,weatherlink.com 1.10,2013-02-21 01:31:00,
2013-02-20 20:46:00,41.2,22.0,30.09,SSE,168,0.0,2.0,46,0.00,,,0.00,weatherlink.com 1.10,2013-02-21 01:46:00,
2013-02-20 21:01:00,40.2,21.0,30.10,SSW,198,0.0,2.0,47,0.00,,,0.00,weatherlink.com 1.10,2013-02-21 02:01:00,
2013-02-20 21:16:00,39.2,20.0,30.09,SSW,198,0.0,1.0,47,0.00,,,0.00,weatherlink.com 1.10,2013-02-21 02:16:00,
2013-02-20 21:31:00,39.2,20.0,30.09,SSW,198,0.0,2.0,46,0.00,,,0.00,weatherlink.com 1.10,2013-02-21 02:31:00,
2013-02-20 21:46:00,39.3,15.0,30.10,NW,317,0.0,3.0,37,0.00,,,0.00,weatherlink.com 1.10,2013-02-21 02:46:00,
2013-02-20 22:01:00,39.3,14.0,30.11,NW,311,0.0,2.0,35,0.00,,,0.00,weatherlink.com 1.10,2013-02-21 03:01:00,
2013-02-20 22:16:00,38.9,13.0,30.11,NW,311,0.0,4.0,35,0.00,,,0.00,weatherlink.com 1.10,2013-02-21 03:16:00,
2013-02-20 22:31:00,38.4,11.0,30.11,NW,311,0.0,2.0,32,0.00,,,0.00,weatherlink.com 1.10,2013-02-21 03:31:00,
2013-02-20 22:46:00,37.9,12.0,30.11,NNW,330,0.0,4.0,34,0.00,,,0.00,weatherlink.com 1.10,2013-02-21 03:46:00,
2013-02-20 23:01:00,37.5,12.0,30.11,NNW,330,0.0,2.0,35,0.00,,,0.00,weatherlink.com 1.10,2013-02-21 04:01:00,
2013-02-20 23:16:00,37.3,11.0,30.11,NNW,345,4.0,4.0,34,0.00,,,0.00,weatherlink.com 1.10,2013-02-21 04:16:00,
2013-02-20 23:31:00,37.1,12.0,30.11,NNW,338,0.0,2.0,35,0.00,,,0.00,weatherlink.com 1.10,2013-02-21 04:31:00,
2013-02-20 23:46:00,36.6,11.0,30.12,NW,314,0.0,3.0,35,0.00,,,0.00,weatherlink.com 1.10,2013-02-21 04:46:00,